createdAt,value
2023-05-13T00:02:46.713Z,7.80
2023-05-13T00:05:49.379Z,7.47
2023-05-13T00:08:51.965Z,6.53
2023-05-13T00:11:54.559Z,7.03
2023-05-13T00:14:57.219Z,6.68
2023-05-13T00:18:00.062Z,6.22
2023-05-13T00:21:02.873Z,7.38
2023-05-13T00:24:05.900Z,6.57
2023-05-13T00:27:08.784Z,6.35
2023-05-13T00:30:11.820Z,6.78
2023-05-13T00:33:14.293Z,6.15
2023-05-13T00:36:16.769Z,6.50
2023-05-13T00:39:19.336Z,6.85
2023-05-13T00:42:21.748Z,5.82
2023-05-13T00:45:24.311Z,6.28
2023-05-13T00:48:27.032Z,6.25
2023-05-13T00:51:29.567Z,6.70
2023-05-13T00:54:32.068Z,6.15
2023-05-13T00:57:35.867Z,6.40
2023-05-13T01:00:52.656Z,6.40
2023-05-13T01:04:09.201Z,6.35
2023-05-13T01:07:27.390Z,6.20
2023-05-13T01:10:43.940Z,6.72
2023-05-13T01:13:48.560Z,7.45
2023-05-13T01:17:01.783Z,7.05
2023-05-13T01:20:06.186Z,7.40
2023-05-13T01:23:12.094Z,5.95
2023-05-13T01:26:16.165Z,7.30
2023-05-13T01:29:18.717Z,6.07
2023-05-13T01:32:23.267Z,5.75
2023-05-13T01:35:25.709Z,7.78
2023-05-13T01:38:31.980Z,8.13
2023-05-13T01:41:35.836Z,7.75
2023-05-13T01:44:38.412Z,8.73
2023-05-13T01:47:43.863Z,10.77
2023-05-13T01:50:48.293Z,11.23
2023-05-13T01:53:50.929Z,11.82
2023-05-13T01:56:54.176Z,11.13
2023-05-13T01:59:56.645Z,10.40
2023-05-13T02:03:00.690Z,10.20
2023-05-13T02:06:04.113Z,10.10
2023-05-13T02:09:07.429Z,9.63
2023-05-13T02:12:10.000Z,9.45
2023-05-13T02:15:12.624Z,9.82
2023-05-13T02:18:15.231Z,8.50
2023-05-13T02:21:17.659Z,8.95
2023-05-13T02:24:20.105Z,8.10
2023-05-13T02:27:23.764Z,8.98
2023-05-13T02:30:27.403Z,7.10
2023-05-13T02:33:29.829Z,7.10
2023-05-13T02:36:32.689Z,7.28
2023-05-13T02:39:36.174Z,6.85
2023-05-13T02:42:38.839Z,7.53
2023-05-13T02:45:41.934Z,6.60
2023-05-13T02:48:46.004Z,5.80
2023-05-13T02:51:48.551Z,6.47
2023-05-13T02:54:52.841Z,6.60
2023-05-13T02:57:57.854Z,6.78
2023-05-13T03:01:01.438Z,6.65
2023-05-13T03:04:04.441Z,6.05
2023-05-13T03:07:07.223Z,6.10
2023-05-13T03:10:09.852Z,7.20
2023-05-13T03:13:12.228Z,5.93
2023-05-13T03:16:14.702Z,5.20
2023-05-13T03:19:17.326Z,6.10
2023-05-13T03:22:19.963Z,6.05
2023-05-13T03:25:22.751Z,6.68
2023-05-13T03:28:30.093Z,5.95
2023-05-13T03:31:32.658Z,5.93
2023-05-13T03:34:38.648Z,5.82
2023-05-13T03:37:42.010Z,5.95
2023-05-13T03:40:46.427Z,6.28
2023-05-13T03:43:50.690Z,6.47
2023-05-13T03:46:53.799Z,6.15
2023-05-13T03:49:57.517Z,6.00
2023-05-13T03:52:59.989Z,5.72
2023-05-13T03:56:03.031Z,6.65
2023-05-13T03:59:05.487Z,5.95
2023-05-13T04:02:08.038Z,6.07
2023-05-13T04:05:11.074Z,6.78
2023-05-13T04:08:13.620Z,6.50
2023-05-13T04:11:16.549Z,6.13
2023-05-13T04:17:22.922Z,6.30
2023-05-13T04:20:26.830Z,6.93
2023-05-13T04:23:30.766Z,6.95
2023-05-13T04:26:33.329Z,6.00
2023-05-13T04:29:36.475Z,6.75
2023-05-13T04:32:43.417Z,6.90
2023-05-13T04:35:47.074Z,7.13
2023-05-13T04:38:49.498Z,6.25
2023-05-13T04:41:53.017Z,6.38
2023-05-13T04:44:55.825Z,7.28
2023-05-13T04:47:58.625Z,6.40
2023-05-13T04:51:01.198Z,6.57
2023-05-13T04:57:06.793Z,6.88
2023-05-13T05:00:09.817Z,6.55
2023-05-13T05:03:14.534Z,6.95
2023-05-13T05:06:17.364Z,6.63
2023-05-13T05:09:20.367Z,6.82
2023-05-13T05:12:25.980Z,10.18
2023-05-13T05:15:29.876Z,8.55
2023-05-13T05:18:36.516Z,7.35
2023-05-13T05:21:40.375Z,7.15
2023-05-13T05:24:44.110Z,6.22
2023-05-13T05:27:47.710Z,6.35
2023-05-13T05:30:50.987Z,6.60
2023-05-13T05:33:59.183Z,6.78
2023-05-13T05:37:01.866Z,6.80
2023-05-13T05:40:05.992Z,7.53
2023-05-13T05:43:13.685Z,7.38
2023-05-13T05:46:17.074Z,6.93
2023-05-13T05:49:19.592Z,6.85
2023-05-13T05:52:22.190Z,7.13
2023-05-13T05:55:25.168Z,6.50
2023-05-13T05:58:28.445Z,7.63
2023-05-13T06:04:36.391Z,5.88
2023-05-13T06:07:39.019Z,6.18
2023-05-13T06:10:42.940Z,6.75
2023-05-13T06:13:45.953Z,6.55
2023-05-13T06:16:48.998Z,6.40
2023-05-13T06:19:51.922Z,7.40
2023-05-13T06:22:54.905Z,6.40
2023-05-13T06:26:00.729Z,6.60
2023-05-13T06:29:03.174Z,6.22
2023-05-13T06:32:09.678Z,6.22
2023-05-13T06:35:12.106Z,7.18
2023-05-13T06:38:17.807Z,5.90
2023-05-13T06:41:21.466Z,5.63
2023-05-13T06:44:25.510Z,6.40
2023-05-13T06:47:30.648Z,5.72
2023-05-13T06:50:33.478Z,6.40
2023-05-13T06:56:38.502Z,6.72
2023-05-13T06:59:40.898Z,6.13
2023-05-13T07:02:43.722Z,5.55
2023-05-13T07:05:46.169Z,4.97
2023-05-13T07:08:48.620Z,5.30
2023-05-13T07:11:51.070Z,5.22
2023-05-13T07:14:53.862Z,5.63
2023-05-13T07:17:56.522Z,5.68
2023-05-13T07:20:59.005Z,5.53
2023-05-13T07:24:05.281Z,4.55
2023-05-13T07:27:08.997Z,5.35
2023-05-13T07:30:12.604Z,5.40
2023-05-13T07:33:15.155Z,5.78
2023-05-13T07:36:17.785Z,5.47
2023-05-13T07:39:20.201Z,5.22
2023-05-13T07:42:22.908Z,6.10
2023-05-13T07:45:41.350Z,5.03
2023-05-13T07:48:43.990Z,5.07
2023-05-13T07:51:46.645Z,5.57
2023-05-13T07:54:49.250Z,6.70
2023-05-13T07:57:54.359Z,6.63
2023-05-13T08:00:56.791Z,6.90
2023-05-13T08:03:59.788Z,6.40
2023-05-13T08:10:05.547Z,6.70
2023-05-13T08:19:14.392Z,6.75
2023-05-13T08:22:16.935Z,6.65
2023-05-13T08:25:19.599Z,8.13
2023-05-13T08:28:22.347Z,6.38
2023-05-13T08:31:25.596Z,6.53
2023-05-13T08:34:28.102Z,8.02
2023-05-13T08:37:30.649Z,5.90
2023-05-13T08:40:33.148Z,6.40
2023-05-13T08:43:35.641Z,6.30
2023-05-13T08:46:38.478Z,6.55
2023-05-13T08:52:43.690Z,5.60
2023-05-13T08:55:46.106Z,4.75
2023-05-13T08:58:48.643Z,5.28
2023-05-13T09:02:09.184Z,5.10
2023-05-13T09:05:32.170Z,4.85
2023-05-13T09:08:35.166Z,4.65
2023-05-13T09:11:44.563Z,4.97
2023-05-13T09:14:47.237Z,4.13
2023-05-13T09:18:04.614Z,4.85
2023-05-13T09:21:26.651Z,5.50
2023-05-13T09:24:29.082Z,4.40
2023-05-13T09:27:38.879Z,4.63
2023-05-13T09:30:43.916Z,4.38
2023-05-13T09:33:55.073Z,4.65
2023-05-13T09:37:01.720Z,4.90
2023-05-13T09:40:07.209Z,5.25
2023-05-13T09:43:10.043Z,4.57
2023-05-13T09:46:13.234Z,4.70
2023-05-13T09:49:15.847Z,5.20
2023-05-13T09:52:18.410Z,6.03
2023-05-13T09:55:20.928Z,4.72
2023-05-13T09:58:24.783Z,4.82
2023-05-13T10:01:28.201Z,4.85
2023-05-13T10:04:31.209Z,4.18
2023-05-13T10:10:37.503Z,4.60
2023-05-13T10:13:40.082Z,4.95
2023-05-13T10:16:45.720Z,4.88
2023-05-13T10:19:53.141Z,5.85
2023-05-13T10:22:55.759Z,4.97
2023-05-13T10:25:59.121Z,5.72
2023-05-13T10:29:02.034Z,5.90
2023-05-13T10:35:10.780Z,5.20
2023-05-13T10:38:27.967Z,5.80
2023-05-13T10:42:08.308Z,5.47
2023-05-13T10:45:12.165Z,6.20
2023-05-13T10:48:15.698Z,6.13
2023-05-13T10:51:18.769Z,6.30
2023-05-13T10:54:22.578Z,5.78
2023-05-13T10:58:09.403Z,5.55
2023-05-13T11:02:16.390Z,5.20
2023-05-13T11:05:25.275Z,5.85
2023-05-13T11:08:38.542Z,7.07
2023-05-13T11:11:41.029Z,6.47
2023-05-13T11:14:44.868Z,6.53
2023-05-13T11:17:47.483Z,6.60
2023-05-13T11:20:53.982Z,5.65
2023-05-13T11:24:03.730Z,6.18
2023-05-13T11:27:21.396Z,6.15
2023-05-13T11:30:25.623Z,5.70
2023-05-13T11:34:06.140Z,8.43
2023-05-13T11:42:11.958Z,6.63
2023-05-13T11:45:14.430Z,6.68
2023-05-13T11:48:23.664Z,6.90
2023-05-13T11:51:26.231Z,6.93
2023-05-13T11:54:28.647Z,7.25
2023-05-13T11:57:34.567Z,7.47
2023-05-13T12:00:36.888Z,7.22
2023-05-13T12:03:39.660Z,6.57
2023-05-13T12:06:45.934Z,7.47
2023-05-13T12:09:49.906Z,7.90
2023-05-13T12:12:52.579Z,6.80
2023-05-13T12:15:55.916Z,6.82
2023-05-13T12:19:08.667Z,6.63
2023-05-13T12:22:11.716Z,5.63
2023-05-13T12:25:45.866Z,6.20
2023-05-13T12:28:48.763Z,6.50
2023-05-13T12:32:04.622Z,6.95
2023-05-13T12:35:13.030Z,7.45
2023-05-13T12:38:17.450Z,7.00
2023-05-13T12:41:20.049Z,6.45
2023-05-13T12:44:22.896Z,8.13
2023-05-13T12:47:25.334Z,7.88
2023-05-13T12:50:28.076Z,6.30
2023-05-13T12:53:30.544Z,7.32
2023-05-13T12:56:32.953Z,6.85
2023-05-13T12:59:35.416Z,7.50
2023-05-13T13:02:41.553Z,7.25
2023-05-13T13:05:44.071Z,6.53
2023-05-13T13:08:46.540Z,7.40
2023-05-13T13:11:49.026Z,6.35
2023-05-13T13:14:52.169Z,5.65
2023-05-13T13:17:54.609Z,5.97
2023-05-13T13:20:57.129Z,6.13
2023-05-13T13:24:01.448Z,5.65
2023-05-13T13:27:03.944Z,5.43
2023-05-13T13:30:07.885Z,5.22
2023-05-13T13:33:12.804Z,5.93
2023-05-13T13:36:15.512Z,6.28
2023-05-13T13:39:17.926Z,5.88
2023-05-13T13:42:21.385Z,6.90
2023-05-13T13:45:24.763Z,5.63
2023-05-13T13:48:27.184Z,5.50
2023-05-13T13:51:29.581Z,6.10
2023-05-13T13:54:34.922Z,6.53
2023-05-13T13:57:37.698Z,5.72
2023-05-13T14:00:40.105Z,6.57
2023-05-13T14:03:42.776Z,5.78
2023-05-13T14:06:45.385Z,6.10
2023-05-13T14:09:48.497Z,6.10
2023-05-13T14:12:50.948Z,5.70
2023-05-13T14:15:53.546Z,5.00
2023-05-13T14:18:56.099Z,5.82
2023-05-13T14:21:59.861Z,5.93
2023-05-13T14:25:02.507Z,6.15
2023-05-13T14:28:05.033Z,6.57
2023-05-13T14:31:07.522Z,5.82
2023-05-13T14:34:09.894Z,5.95
2023-05-13T14:37:12.320Z,6.07
2023-05-13T14:40:14.864Z,5.45
2023-05-13T14:43:17.364Z,6.07
2023-05-13T14:46:19.953Z,6.10
2023-05-13T14:49:22.469Z,6.53
2023-05-13T14:52:25.661Z,6.38
2023-05-13T14:55:28.047Z,5.78
2023-05-13T14:58:30.501Z,6.65
2023-05-13T15:01:33.013Z,6.68
2023-05-13T15:04:35.778Z,6.07
2023-05-13T15:07:38.366Z,7.43
2023-05-13T15:10:40.865Z,7.38
2023-05-13T15:13:43.773Z,5.78
2023-05-13T15:16:46.239Z,6.35
2023-05-13T15:19:48.844Z,5.90
2023-05-13T15:22:51.345Z,7.10
2023-05-13T15:25:53.989Z,6.05
2023-05-13T15:28:56.385Z,5.45
2023-05-13T15:31:59.193Z,6.32
2023-05-13T15:35:03.039Z,6.55
2023-05-13T15:38:05.528Z,6.57
2023-05-13T15:41:07.971Z,6.60
2023-05-13T15:44:10.480Z,6.63
2023-05-13T15:47:13.511Z,6.78
2023-05-13T15:50:16.645Z,5.75
2023-05-13T15:53:19.148Z,6.45
2023-05-13T15:56:25.918Z,5.57
2023-05-13T15:59:28.504Z,6.47
2023-05-13T16:02:37.526Z,6.43
2023-05-13T16:05:39.958Z,6.20
2023-05-13T16:08:42.356Z,5.93
2023-05-13T16:11:44.801Z,5.78
2023-05-13T16:14:47.141Z,6.45
2023-05-13T16:17:49.597Z,5.78
2023-05-13T16:20:52.549Z,5.75
2023-05-13T16:26:57.166Z,5.68
2023-05-13T16:30:00.804Z,6.50
2023-05-13T16:33:03.375Z,6.80
2023-05-13T16:36:06.744Z,6.22
2023-05-13T16:39:09.179Z,6.15
2023-05-13T16:42:11.713Z,6.50
2023-05-13T16:45:14.255Z,5.95
2023-05-13T16:48:17.216Z,6.30
2023-05-13T16:51:19.877Z,5.90
2023-05-13T16:54:22.356Z,6.30
2023-05-13T16:57:24.970Z,5.68
2023-05-13T17:00:27.518Z,5.88
2023-05-13T17:03:30.283Z,6.70
2023-05-13T17:06:32.786Z,7.18
2023-05-13T17:09:35.344Z,7.20
2023-05-13T17:12:37.870Z,6.55
2023-05-13T17:15:40.263Z,6.25
2023-05-13T17:18:42.719Z,6.05
2023-05-13T17:21:45.212Z,6.38
2023-05-13T17:24:47.714Z,5.65
2023-05-13T17:27:50.089Z,5.82
2023-05-13T17:30:52.774Z,5.88
2023-05-13T17:33:55.339Z,6.00
2023-05-13T17:36:57.939Z,6.63
2023-05-13T17:40:02.545Z,6.10
2023-05-13T17:43:05.014Z,7.15
2023-05-13T17:46:07.620Z,7.03
2023-05-13T17:49:10.181Z,7.68
2023-05-13T17:52:13.170Z,6.20
2023-05-13T17:58:18.122Z,6.43
2023-05-13T18:01:21.901Z,6.25
2023-05-13T18:04:24.324Z,6.20
2023-05-13T18:07:26.980Z,6.03
2023-05-13T18:10:29.429Z,6.40
2023-05-13T18:13:32.635Z,5.82
2023-05-13T18:16:35.269Z,6.97
2023-05-13T18:19:37.888Z,5.45
2023-05-13T18:22:40.381Z,6.30
2023-05-13T18:25:52.376Z,6.03
2023-05-13T18:28:58.118Z,5.90
2023-05-13T18:32:00.758Z,6.60
2023-05-13T18:35:03.236Z,6.47
2023-05-13T18:38:06.792Z,7.00
2023-05-13T18:41:09.362Z,6.75
2023-05-13T18:44:12.081Z,7.28
2023-05-13T18:47:14.629Z,6.88
2023-05-13T18:50:17.293Z,8.02
2023-05-13T18:53:19.807Z,8.10
2023-05-13T18:56:22.734Z,7.32
2023-05-13T18:59:25.384Z,6.78
2023-05-13T19:02:28.178Z,6.93
2023-05-13T19:05:30.922Z,7.65
2023-05-13T19:08:33.410Z,7.80
2023-05-13T19:11:35.861Z,8.32
2023-05-13T19:14:38.298Z,7.25
2023-05-13T19:17:41.851Z,7.32
2023-05-13T19:20:46.397Z,6.97
2023-05-13T19:23:49.958Z,7.72
2023-05-13T19:26:52.389Z,7.90
2023-05-13T19:29:54.946Z,7.60
2023-05-13T19:32:57.497Z,7.57
2023-05-13T19:36:00.116Z,7.68
2023-05-13T19:39:02.589Z,9.43
2023-05-13T19:42:05.274Z,8.90
2023-05-13T19:45:08.630Z,7.32
2023-05-13T19:48:11.520Z,8.10
2023-05-13T19:51:14.364Z,6.97
2023-05-13T19:54:17.534Z,7.53
2023-05-13T19:57:21.339Z,7.03
2023-05-13T20:00:24.379Z,7.75
2023-05-13T20:03:27.299Z,6.45
2023-05-13T20:06:29.824Z,7.70
2023-05-13T20:09:32.267Z,6.97
2023-05-13T20:12:34.783Z,7.40
2023-05-13T20:15:37.162Z,6.88
2023-05-13T20:18:39.687Z,8.25
2023-05-13T20:21:42.193Z,7.38
2023-05-13T20:24:46.900Z,7.15
2023-05-13T20:27:49.831Z,7.78
2023-05-13T20:30:53.061Z,7.53
2023-05-13T20:33:55.481Z,7.30
2023-05-13T20:36:58.140Z,7.07
2023-05-13T20:40:00.614Z,7.78
2023-05-13T20:43:04.606Z,8.52
2023-05-13T20:46:09.119Z,7.00
2023-05-13T20:49:14.633Z,8.00
2023-05-13T20:52:17.636Z,7.22
2023-05-13T20:55:23.202Z,7.43
2023-05-13T20:58:26.245Z,7.50
2023-05-13T21:04:31.241Z,7.68
2023-05-13T21:07:36.276Z,7.78
2023-05-13T21:10:38.895Z,6.93
2023-05-13T21:13:41.331Z,7.38
2023-05-13T21:16:43.960Z,7.38
2023-05-13T21:19:46.620Z,7.20
2023-05-13T21:22:49.120Z,7.78
2023-05-13T21:25:51.591Z,6.95
2023-05-13T21:28:54.194Z,7.32
2023-05-13T21:31:56.981Z,6.63
2023-05-13T21:34:59.427Z,6.38
2023-05-13T21:38:11.339Z,6.55
2023-05-13T21:41:14.669Z,6.78
2023-05-13T21:44:17.056Z,6.30
2023-05-13T21:47:19.549Z,6.50
2023-05-13T21:50:22.252Z,6.30
2023-05-13T21:53:24.973Z,6.10
2023-05-13T21:56:28.186Z,6.28
2023-05-13T21:59:30.728Z,6.13
2023-05-13T22:02:33.528Z,5.85
2023-05-13T22:05:42.235Z,6.47
2023-05-13T22:08:44.909Z,6.18
2023-05-13T22:11:47.318Z,7.00
2023-05-13T22:14:49.697Z,6.82
2023-05-13T22:17:52.249Z,7.05
2023-05-13T22:20:55.007Z,6.50
2023-05-13T22:23:57.440Z,7.00
2023-05-13T22:27:00.336Z,6.22
2023-05-13T22:30:02.771Z,6.90
2023-05-13T22:33:05.205Z,7.45
2023-05-13T22:36:08.884Z,7.63
2023-05-13T22:39:12.382Z,6.63
2023-05-13T22:42:14.989Z,7.05
2023-05-13T22:45:17.443Z,7.50
2023-05-13T22:48:19.991Z,6.28
2023-05-13T22:51:22.412Z,6.95
2023-05-13T22:54:25.306Z,6.80
2023-05-13T22:57:27.966Z,6.78
2023-05-13T23:00:30.420Z,6.97
2023-05-13T23:03:32.825Z,7.35
2023-05-13T23:06:35.300Z,7.25
2023-05-13T23:09:37.682Z,8.15
2023-05-13T23:12:40.174Z,5.93
2023-05-13T23:15:42.679Z,7.97
2023-05-13T23:18:45.483Z,6.25
2023-05-13T23:21:48.030Z,8.10
2023-05-13T23:24:50.918Z,7.10
2023-05-13T23:27:53.395Z,6.30
2023-05-13T23:30:56.652Z,6.25
2023-05-13T23:33:59.299Z,6.65
2023-05-13T23:37:02.074Z,7.25
2023-05-13T23:40:05.060Z,7.45
2023-05-13T23:43:07.526Z,7.30
2023-05-13T23:46:10.459Z,6.97
2023-05-13T23:49:13.346Z,7.57
2023-05-13T23:52:16.478Z,6.30
2023-05-13T23:55:19.408Z,6.32
2023-05-13T23:58:22.478Z,6.38
